createdAt,value
2023-03-18T00:00:15.333Z,9
2023-03-18T00:01:58.774Z,9
2023-03-18T00:03:42.165Z,9
2023-03-18T00:05:25.510Z,9
2023-03-18T00:07:08.919Z,10
2023-03-18T00:08:52.322Z,9
2023-03-18T00:10:35.773Z,9
2023-03-18T00:15:44.958Z,2
2023-03-18T00:17:28.378Z,2
2023-03-18T00:19:11.736Z,2
2023-03-18T00:20:55.203Z,2
2023-03-18T00:22:38.554Z,1
2023-03-18T00:24:22.026Z,2
2023-03-18T00:26:05.343Z,2
2023-03-18T00:31:14.604Z,2
2023-03-18T00:32:58.007Z,2
2023-03-18T00:34:41.412Z,1
2023-03-18T00:36:24.819Z,1
2023-03-18T00:38:08.217Z,2
2023-03-18T00:39:51.547Z,2
2023-03-18T00:41:34.982Z,2
2023-03-18T00:46:44.223Z,2
2023-03-18T00:48:27.921Z,1
2023-03-18T00:50:10.993Z,2
2023-03-18T00:51:54.406Z,2
2023-03-18T00:53:37.777Z,1
2023-03-18T00:55:21.194Z,1
2023-03-18T00:57:04.624Z,2
2023-03-18T01:00:31.072Z,2
2023-03-18T01:02:14.496Z,2
2023-03-18T01:03:57.889Z,1
2023-03-18T01:05:41.232Z,2
2023-03-18T01:07:24.641Z,1
2023-03-18T01:09:08.042Z,1
2023-03-18T01:10:51.428Z,2
2023-03-18T01:12:34.838Z,2
2023-03-18T01:14:18.542Z,1
2023-03-18T01:16:01.994Z,1
2023-03-18T01:17:45.333Z,2
2023-03-18T01:19:28.737Z,2
2023-03-18T01:21:12.123Z,2
2023-03-18T01:22:55.522Z,2
2023-03-18T01:24:38.930Z,2
2023-03-18T01:26:22.343Z,2
2023-03-18T01:28:06.024Z,1
2023-03-18T01:29:49.430Z,2
2023-03-18T01:31:32.817Z,2
2023-03-18T01:33:16.202Z,2
2023-03-18T01:34:59.602Z,2
2023-03-18T01:36:43.014Z,2
2023-03-18T01:38:26.452Z,2
2023-03-18T01:40:09.785Z,2
2023-03-18T01:41:53.503Z,2
2023-03-18T01:43:36.897Z,2
2023-03-18T01:45:20.292Z,1
2023-03-18T01:47:03.691Z,2
2023-03-18T01:48:47.077Z,2
2023-03-18T01:50:30.467Z,2
2023-03-18T01:52:13.908Z,2
2023-03-18T01:53:57.297Z,1
2023-03-18T01:57:23.733Z,2
2023-03-18T01:59:07.199Z,2
2023-03-18T02:00:50.529Z,1
2023-03-18T02:02:33.944Z,2
2023-03-18T02:04:17.435Z,2
2023-03-18T02:06:00.719Z,2
2023-03-18T02:07:44.192Z,2
2023-03-18T02:09:27.498Z,2
2023-03-18T02:11:11.224Z,1
2023-03-18T02:12:54.628Z,1
2023-03-18T02:14:37.992Z,1
2023-03-18T02:16:21.404Z,2
2023-03-18T02:18:04.804Z,2
2023-03-18T02:19:48.190Z,1
2023-03-18T02:21:31.606Z,2
2023-03-18T02:23:14.972Z,1
2023-03-18T02:26:41.472Z,2
2023-03-18T02:28:24.911Z,2
2023-03-18T02:30:08.245Z,2
2023-03-18T02:31:51.674Z,3
2023-03-18T02:33:35.041Z,2
2023-03-18T02:35:18.431Z,2
2023-03-18T02:37:01.842Z,2
2023-03-18T02:42:11.082Z,2
2023-03-18T02:43:54.470Z,2
2023-03-18T02:45:37.882Z,2
2023-03-18T02:47:21.264Z,2
2023-03-18T02:49:04.659Z,2
2023-03-18T02:50:48.064Z,2
2023-03-18T02:52:31.461Z,2
2023-03-18T02:57:40.695Z,2
2023-03-18T02:59:24.137Z,2
2023-03-18T03:01:07.580Z,2
2023-03-18T03:02:50.898Z,2
2023-03-18T03:04:34.280Z,2
2023-03-18T03:06:17.705Z,1
2023-03-18T03:08:01.080Z,2
2023-03-18T03:13:10.371Z,1
2023-03-18T03:14:53.715Z,2
2023-03-18T03:16:37.140Z,2
2023-03-18T03:18:20.529Z,2
2023-03-18T03:20:03.898Z,2
2023-03-18T03:21:47.346Z,2
2023-03-18T03:23:30.788Z,2
2023-03-18T03:25:14.124Z,2
2023-03-18T03:28:40.569Z,2
2023-03-18T03:30:23.998Z,2
2023-03-18T03:32:07.459Z,2
2023-03-18T03:33:50.739Z,2
2023-03-18T03:35:34.264Z,2
2023-03-18T03:37:17.540Z,2
2023-03-18T03:39:00.931Z,1
2023-03-18T03:44:10.254Z,2
2023-03-18T03:45:53.631Z,2
2023-03-18T03:47:36.976Z,2
2023-03-18T03:49:20.368Z,2
2023-03-18T03:51:03.842Z,2
2023-03-18T03:52:47.181Z,2
2023-03-18T03:54:30.545Z,2
2023-03-18T03:57:57.037Z,1
2023-03-18T03:59:40.457Z,2
2023-03-18T04:01:23.866Z,1
2023-03-18T04:03:27.799Z,1
2023-03-18T04:04:50.611Z,2
2023-03-18T04:06:34.009Z,1
2023-03-18T04:08:22.985Z,2
2023-03-18T04:10:00.814Z,2
2023-03-18T04:11:44.495Z,1
2023-03-18T04:13:27.905Z,2
2023-03-18T04:15:11.302Z,2
2023-03-18T04:16:54.697Z,1
2023-03-18T04:18:38.114Z,2
2023-03-18T04:20:21.534Z,1
2023-03-18T04:22:05.648Z,1
2023-03-18T04:23:48.365Z,1
2023-03-18T04:27:14.776Z,2
2023-03-18T04:28:58.162Z,1
2023-03-18T04:30:41.533Z,2
2023-03-18T04:32:24.951Z,1
2023-03-18T04:34:08.335Z,2
2023-03-18T04:35:51.739Z,1
2023-03-18T04:37:35.145Z,2
2023-03-18T04:39:18.528Z,1
2023-03-18T04:44:27.825Z,2
2023-03-18T04:46:11.158Z,1
2023-03-18T04:47:54.561Z,1
2023-03-18T04:49:37.943Z,2
2023-03-18T04:51:21.332Z,2
2023-03-18T04:53:04.759Z,2
2023-03-18T04:54:48.141Z,2
2023-03-18T04:56:31.611Z,2
2023-03-18T04:59:58.006Z,2
2023-03-18T05:01:41.461Z,2
2023-03-18T05:03:24.965Z,2
2023-03-18T05:05:08.194Z,2
2023-03-18T05:06:51.703Z,2
2023-03-18T05:08:34.980Z,2
2023-03-18T05:10:18.421Z,1
2023-03-18T05:12:01.790Z,1
2023-03-18T05:15:28.242Z,2
2023-03-18T05:17:11.653Z,1
2023-03-18T05:18:55.059Z,1
2023-03-18T05:20:38.529Z,2
2023-03-18T05:22:21.834Z,2
2023-03-18T05:24:05.226Z,1
2023-03-18T05:25:48.630Z,1
2023-03-18T05:27:32.013Z,2
2023-03-18T05:30:58.518Z,1
2023-03-18T05:32:41.890Z,1
2023-03-18T05:34:25.281Z,2
2023-03-18T05:36:08.681Z,2
2023-03-18T05:37:52.088Z,2
2023-03-18T05:39:35.482Z,3
2023-03-18T05:41:18.951Z,3
2023-03-18T05:43:02.267Z,3
2023-03-18T05:48:11.518Z,3
2023-03-18T05:49:54.886Z,3
2023-03-18T05:51:38.387Z,4
2023-03-18T05:53:21.700Z,4
2023-03-18T05:55:05.085Z,4
2023-03-18T05:56:48.488Z,4
2023-03-18T05:58:31.883Z,5
2023-03-18T06:00:15.279Z,5
2023-03-18T06:01:58.984Z,5
2023-03-18T06:03:42.400Z,5
2023-03-18T06:05:25.777Z,5
2023-03-18T06:07:09.179Z,5
2023-03-18T06:08:52.570Z,5
2023-03-18T06:10:35.966Z,6
2023-03-18T06:12:19.368Z,5
2023-03-18T06:14:02.760Z,6
2023-03-18T06:19:12.078Z,6
2023-03-18T06:20:55.421Z,6
2023-03-18T06:22:38.804Z,6
2023-03-18T06:24:22.215Z,6
2023-03-18T06:26:05.583Z,7
2023-03-18T06:27:49.025Z,7
2023-03-18T06:29:32.376Z,7
2023-03-18T06:31:15.772Z,8
2023-03-18T06:34:42.246Z,7
2023-03-18T06:36:25.666Z,8
2023-03-18T06:38:09.137Z,9
2023-03-18T06:39:52.434Z,9
2023-03-18T06:41:35.817Z,9
2023-03-18T06:43:19.230Z,9
2023-03-18T06:45:02.623Z,10
2023-03-18T06:46:46.028Z,15
2023-03-18T06:50:12.498Z,14
2023-03-18T06:51:55.943Z,13
2023-03-18T06:53:39.276Z,14
2023-03-18T06:55:22.782Z,15
2023-03-18T06:57:06.073Z,14
2023-03-18T06:58:49.498Z,14
2023-03-18T07:00:33.000Z,15
2023-03-18T07:02:16.340Z,15
2023-03-18T07:05:42.728Z,20
2023-03-18T07:07:26.349Z,21
2023-03-18T07:09:09.598Z,20
2023-03-18T07:10:53.094Z,19
2023-03-18T07:12:36.358Z,14
2023-03-18T07:14:19.721Z,18
2023-03-18T07:16:03.107Z,13
2023-03-18T07:17:46.510Z,16
2023-03-18T07:21:12.969Z,27
2023-03-18T07:22:56.446Z,28
2023-03-18T07:24:39.764Z,29
2023-03-18T07:26:23.220Z,29
2023-03-18T07:28:06.608Z,29
2023-03-18T07:29:49.952Z,28
2023-03-18T07:31:33.437Z,29
2023-03-18T07:33:16.776Z,29
2023-03-18T07:36:43.244Z,30
2023-03-18T07:38:26.659Z,30
2023-03-18T07:40:10.006Z,21
2023-03-18T07:41:53.458Z,26
2023-03-18T07:43:36.799Z,28
2023-03-18T07:45:20.296Z,30
2023-03-18T07:47:03.628Z,27
2023-03-18T07:48:47.035Z,31
2023-03-18T07:52:13.461Z,31
2023-03-18T07:53:56.860Z,32
2023-03-18T07:55:40.389Z,31
2023-03-18T07:57:23.656Z,28
2023-03-18T07:59:07.039Z,32
2023-03-18T08:00:50.489Z,34
2023-03-18T08:02:33.831Z,34
2023-03-18T08:04:17.235Z,34
2023-03-18T08:07:43.712Z,36
2023-03-18T08:09:27.153Z,37
2023-03-18T08:11:10.536Z,38
2023-03-18T08:12:53.985Z,39
2023-03-18T08:14:37.294Z,40
2023-03-18T08:16:20.706Z,40
2023-03-18T08:18:04.132Z,41
2023-03-18T08:19:47.554Z,41
2023-03-18T08:23:13.966Z,43
2023-03-18T08:24:57.343Z,44
2023-03-18T08:26:40.751Z,287
2023-03-18T08:28:24.225Z,697
2023-03-18T08:30:07.526Z,702
2023-03-18T08:31:50.947Z,723
2023-03-18T08:33:34.387Z,778
2023-03-18T08:35:17.734Z,777
2023-03-18T08:37:01.168Z,767
2023-03-18T08:38:44.840Z,778
2023-03-18T08:40:28.233Z,778
2023-03-18T08:42:11.634Z,777
2023-03-18T08:43:55.061Z,778
2023-03-18T08:45:38.413Z,778
2023-03-18T08:47:21.795Z,778
2023-03-18T08:49:05.225Z,778
2023-03-18T08:50:48.613Z,777
2023-03-18T08:54:15.068Z,778
2023-03-18T08:55:58.534Z,778
2023-03-18T08:57:41.906Z,778
2023-03-18T08:59:25.358Z,778
2023-03-18T09:01:08.681Z,778
2023-03-18T09:02:52.083Z,777
2023-03-18T09:04:35.463Z,778
2023-03-18T09:06:18.992Z,778
2023-03-18T09:09:45.337Z,778
2023-03-18T09:11:28.758Z,778
2023-03-18T09:13:12.243Z,777
2023-03-18T09:14:55.703Z,777
2023-03-18T09:16:39.111Z,778
2023-03-18T09:18:22.311Z,777
2023-03-18T09:20:05.997Z,777
2023-03-18T09:21:49.119Z,716
2023-03-18T09:25:15.597Z,778
2023-03-18T09:26:59.025Z,778
2023-03-18T09:28:42.368Z,778
2023-03-18T09:30:25.769Z,778
2023-03-18T09:32:09.153Z,778
2023-03-18T09:33:52.731Z,778
2023-03-18T09:35:36.153Z,778
2023-03-18T09:40:45.287Z,778
2023-03-18T09:42:28.607Z,778
2023-03-18T09:44:12.025Z,778
2023-03-18T09:45:55.391Z,778
2023-03-18T09:47:38.848Z,778
2023-03-18T09:49:22.180Z,777
2023-03-18T09:51:05.587Z,777
2023-03-18T09:56:14.858Z,778
2023-03-18T09:57:58.219Z,778
2023-03-18T09:59:41.611Z,778
2023-03-18T10:01:25.052Z,778
2023-03-18T10:03:08.404Z,778
2023-03-18T10:04:51.855Z,777
2023-03-18T10:06:35.228Z,778
2023-03-18T10:10:01.673Z,778
2023-03-18T10:11:45.061Z,778
2023-03-18T10:13:28.455Z,778
2023-03-18T10:15:11.847Z,778
2023-03-18T10:16:55.238Z,779
2023-03-18T10:18:38.646Z,778
2023-03-18T10:20:22.116Z,778
2023-03-18T10:25:31.387Z,778
2023-03-18T10:27:14.676Z,779
2023-03-18T10:28:58.062Z,778
2023-03-18T10:30:41.479Z,778
2023-03-18T10:32:24.896Z,777
2023-03-18T10:35:51.788Z,777
2023-03-18T10:39:18.174Z,779
2023-03-18T10:41:01.631Z,778
2023-03-18T10:42:44.922Z,778
2023-03-18T10:44:28.316Z,779
2023-03-18T10:46:11.714Z,778
2023-03-18T10:47:55.117Z,778
2023-03-18T10:49:38.499Z,778
2023-03-18T10:51:21.905Z,768
2023-03-18T10:53:05.625Z,778
2023-03-18T10:54:49.062Z,778
2023-03-18T10:56:32.394Z,779
2023-03-18T10:58:15.810Z,778
2023-03-18T10:59:59.188Z,778
2023-03-18T11:01:42.583Z,778
2023-03-18T11:03:25.983Z,778
2023-03-18T11:08:35.221Z,755
2023-03-18T11:10:18.614Z,778
2023-03-18T11:12:02.021Z,778
2023-03-18T11:13:45.407Z,778
2023-03-18T11:15:28.804Z,778
2023-03-18T11:17:12.200Z,778
2023-03-18T11:18:56.033Z,778
2023-03-18T11:20:39.322Z,778
2023-03-18T11:22:22.738Z,778
2023-03-18T11:24:06.190Z,778
2023-03-18T11:27:32.967Z,779
2023-03-18T11:29:16.284Z,779
2023-03-18T11:30:59.794Z,778
2023-03-18T11:36:08.922Z,777
2023-03-18T11:37:52.363Z,778
2023-03-18T11:39:35.707Z,778
2023-03-18T11:41:19.106Z,779
2023-03-18T11:43:02.573Z,778
2023-03-18T11:44:45.901Z,779
2023-03-18T11:46:29.309Z,779
2023-03-18T11:49:55.767Z,779
2023-03-18T11:51:39.268Z,778
2023-03-18T11:53:22.567Z,778
2023-03-18T11:55:05.963Z,779
2023-03-18T11:56:49.364Z,778
2023-03-18T11:58:32.774Z,778
2023-03-18T12:00:16.143Z,778
2023-03-18T12:05:25.530Z,778
2023-03-18T12:07:08.858Z,778
2023-03-18T12:08:52.170Z,779
2023-03-18T12:10:35.650Z,778
2023-03-18T12:12:18.983Z,779
2023-03-18T12:14:02.578Z,779
2023-03-18T12:15:45.897Z,778
2023-03-18T12:19:12.362Z,778
2023-03-18T12:20:55.668Z,778
2023-03-18T12:22:39.020Z,778
2023-03-18T12:24:22.437Z,778
2023-03-18T12:26:05.818Z,778
2023-03-18T12:27:49.221Z,778
2023-03-18T12:29:32.602Z,778
2023-03-18T12:32:59.094Z,779
2023-03-18T12:34:42.541Z,778
2023-03-18T12:36:26.018Z,778
2023-03-18T12:38:09.293Z,778
2023-03-18T12:39:52.709Z,778
2023-03-18T12:41:36.069Z,778
2023-03-18T12:43:19.461Z,779
2023-03-18T12:45:02.853Z,769
2023-03-18T12:46:46.711Z,779
2023-03-18T12:48:29.967Z,778
2023-03-18T12:50:13.380Z,778
2023-03-18T12:51:56.743Z,778
2023-03-18T12:53:40.271Z,779
2023-03-18T12:55:23.643Z,778
2023-03-18T12:57:06.969Z,779
2023-03-18T13:00:33.498Z,779
2023-03-18T13:02:16.813Z,778
2023-03-18T13:04:00.285Z,778
2023-03-18T13:05:43.649Z,778
2023-03-18T13:07:27.023Z,778
2023-03-18T13:09:10.522Z,779
2023-03-18T13:10:53.800Z,779
2023-03-18T13:14:20.282Z,779
2023-03-18T13:16:03.805Z,779
2023-03-18T13:17:47.072Z,778
2023-03-18T13:19:30.447Z,779
2023-03-18T13:21:13.975Z,779
2023-03-18T13:22:57.256Z,778
2023-03-18T13:24:40.627Z,779
2023-03-18T13:28:07.103Z,403
2023-03-18T13:29:50.537Z,758
2023-03-18T13:31:33.903Z,780
2023-03-18T13:33:17.272Z,779
2023-03-18T13:35:00.682Z,778
2023-03-18T13:36:44.104Z,779
2023-03-18T13:38:27.474Z,779
2023-03-18T13:41:53.946Z,778
2023-03-18T13:43:37.380Z,779
2023-03-18T13:45:20.723Z,779
2023-03-18T13:47:04.129Z,779
2023-03-18T13:48:47.540Z,779
2023-03-18T13:50:31.015Z,779
2023-03-18T13:52:14.309Z,778
2023-03-18T13:55:40.827Z,779
2023-03-18T13:57:24.208Z,774
2023-03-18T13:59:07.585Z,779
2023-03-18T14:00:50.978Z,779
2023-03-18T14:02:34.369Z,778
2023-03-18T14:04:17.799Z,779
2023-03-18T14:06:01.178Z,779
2023-03-18T14:09:27.633Z,777
2023-03-18T14:11:11.081Z,779
2023-03-18T14:12:54.461Z,778
2023-03-18T14:14:37.819Z,779
2023-03-18T14:16:21.241Z,778
2023-03-18T14:18:04.663Z,779
2023-03-18T14:19:48.043Z,779
2023-03-18T14:24:57.266Z,695
2023-03-18T14:26:40.650Z,709
2023-03-18T14:28:24.067Z,689
2023-03-18T14:30:07.481Z,699
2023-03-18T14:31:50.882Z,731
2023-03-18T14:33:34.267Z,779
2023-03-18T14:35:17.623Z,766
2023-03-18T14:38:44.249Z,619
2023-03-18T14:40:27.520Z,625
2023-03-18T14:42:10.901Z,595
2023-03-18T14:43:54.297Z,610
2023-03-18T14:45:37.941Z,607
2023-03-18T14:47:21.101Z,609
2023-03-18T14:49:04.504Z,627
2023-03-18T14:50:47.949Z,688
2023-03-18T14:52:31.592Z,744
2023-03-18T14:54:14.989Z,778
2023-03-18T14:55:58.390Z,706
2023-03-18T14:57:41.781Z,693
2023-03-18T14:59:25.189Z,661
2023-03-18T15:01:08.587Z,620
2023-03-18T15:02:51.973Z,601
2023-03-18T15:04:35.372Z,579
2023-03-18T15:06:19.110Z,569
2023-03-18T15:08:02.459Z,569
2023-03-18T15:09:46.015Z,569
2023-03-18T15:11:29.248Z,596
2023-03-18T15:13:12.673Z,649
2023-03-18T15:14:56.056Z,585
2023-03-18T15:16:39.471Z,574
2023-03-18T15:21:48.727Z,630
2023-03-18T15:23:32.101Z,629
2023-03-18T15:25:15.495Z,590
2023-03-18T15:26:58.907Z,520
2023-03-18T15:28:42.318Z,522
2023-03-18T15:30:25.681Z,547
2023-03-18T15:32:09.078Z,555
2023-03-18T15:35:35.713Z,535
2023-03-18T15:37:18.962Z,521
2023-03-18T15:39:02.370Z,514
2023-03-18T15:40:45.771Z,585
2023-03-18T15:42:29.153Z,541
2023-03-18T15:44:12.615Z,538
2023-03-18T15:45:56.076Z,547
2023-03-18T15:49:22.478Z,708
2023-03-18T15:51:05.810Z,698
2023-03-18T15:52:49.190Z,778
2023-03-18T15:54:32.746Z,588
2023-03-18T15:56:16.099Z,593
2023-03-18T15:57:59.384Z,538
2023-03-18T15:59:42.844Z,483
2023-03-18T16:04:52.064Z,450
2023-03-18T16:06:35.417Z,445
2023-03-18T16:08:18.962Z,414
2023-03-18T16:10:02.223Z,376
2023-03-18T16:11:45.746Z,373
2023-03-18T16:13:29.004Z,374
2023-03-18T16:15:12.406Z,328
2023-03-18T16:18:39.076Z,377
2023-03-18T16:20:22.268Z,365
2023-03-18T16:22:05.735Z,378
2023-03-18T16:23:49.110Z,328
2023-03-18T16:25:32.463Z,330
2023-03-18T16:27:16.040Z,302
2023-03-18T16:28:59.256Z,281
2023-03-18T16:32:25.721Z,264
2023-03-18T16:34:09.143Z,265
2023-03-18T16:35:52.643Z,252
2023-03-18T16:37:35.959Z,221
2023-03-18T16:39:19.327Z,203
2023-03-18T16:41:02.798Z,190
2023-03-18T16:42:46.116Z,170
2023-03-18T16:46:12.685Z,162
2023-03-18T16:47:55.983Z,162
2023-03-18T16:49:39.379Z,160
2023-03-18T16:51:22.767Z,159
2023-03-18T16:53:06.169Z,151
2023-03-18T16:54:49.669Z,142
2023-03-18T16:56:32.999Z,133
2023-03-18T16:59:59.499Z,125
2023-03-18T17:01:42.828Z,122
2023-03-18T17:03:26.240Z,114
2023-03-18T17:05:09.622Z,106
2023-03-18T17:06:53.047Z,99
2023-03-18T17:08:36.485Z,88
2023-03-18T17:10:19.822Z,79
2023-03-18T17:12:03.219Z,71
2023-03-18T17:13:46.912Z,62
2023-03-18T17:15:30.501Z,53
2023-03-18T17:17:13.718Z,45
2023-03-18T17:18:57.114Z,36
2023-03-18T17:20:40.506Z,30
2023-03-18T17:22:23.932Z,26
2023-03-18T17:24:07.346Z,21
2023-03-18T17:27:33.821Z,15
2023-03-18T17:29:17.166Z,20
2023-03-18T17:31:00.607Z,18
2023-03-18T17:32:43.973Z,18
2023-03-18T17:34:27.366Z,12
2023-03-18T17:36:10.797Z,11
2023-03-18T17:37:54.169Z,12
2023-03-18T17:43:03.415Z,9
2023-03-18T17:44:46.792Z,10
2023-03-18T17:46:30.351Z,9
2023-03-18T17:48:13.600Z,9
2023-03-18T17:49:57.003Z,9
2023-03-18T17:51:40.364Z,9
2023-03-18T17:53:23.776Z,9
2023-03-18T17:56:50.346Z,9
2023-03-18T17:58:33.683Z,10
2023-03-18T18:00:17.135Z,9
2023-03-18T18:02:00.438Z,9
2023-03-18T18:03:43.840Z,9
2023-03-18T18:05:27.393Z,10
2023-03-18T18:07:10.683Z,8
2023-03-18T18:08:54.012Z,10
2023-03-18T18:10:37.728Z,9
2023-03-18T18:12:21.211Z,9
2023-03-18T18:14:04.542Z,9
2023-03-18T18:15:47.904Z,10
2023-03-18T18:17:31.313Z,9
2023-03-18T18:19:14.715Z,10
2023-03-18T18:20:58.124Z,10
2023-03-18T18:22:41.491Z,9
2023-03-18T18:24:25.187Z,9
2023-03-18T18:26:08.653Z,9
2023-03-18T18:27:52.113Z,9
2023-03-18T18:29:35.431Z,9
2023-03-18T18:31:18.901Z,9
2023-03-18T18:33:02.193Z,9
2023-03-18T18:34:45.568Z,8
2023-03-18T18:39:54.904Z,9
2023-03-18T18:41:38.245Z,9
2023-03-18T18:43:21.634Z,10
2023-03-18T18:45:05.022Z,9
2023-03-18T18:46:48.510Z,9
2023-03-18T18:48:31.833Z,8
2023-03-18T18:50:15.187Z,9
2023-03-18T18:53:41.704Z,9
2023-03-18T18:55:25.185Z,8
2023-03-18T18:57:08.556Z,8
2023-03-18T18:58:51.902Z,9
2023-03-18T19:00:35.257Z,9
2023-03-18T19:02:18.657Z,9
2023-03-18T19:04:02.068Z,10
2023-03-18T19:05:45.606Z,10
2023-03-18T19:07:29.241Z,9
2023-03-18T19:09:12.552Z,10
2023-03-18T19:10:55.968Z,9
2023-03-18T19:12:39.339Z,9
2023-03-18T19:14:22.748Z,9
2023-03-18T19:16:06.264Z,9
2023-03-18T19:17:49.582Z,9
2023-03-18T19:21:16.009Z,10
2023-03-18T19:22:59.384Z,9
2023-03-18T19:24:42.854Z,9
2023-03-18T19:26:26.190Z,9
2023-03-18T19:28:09.710Z,9
2023-03-18T19:29:53.053Z,9
2023-03-18T19:31:36.403Z,8
2023-03-18T19:33:19.841Z,10
2023-03-18T19:35:03.577Z,8
2023-03-18T19:36:46.953Z,9
2023-03-18T19:38:30.252Z,8
2023-03-18T19:40:13.701Z,10
2023-03-18T19:41:57.057Z,9
2023-03-18T19:43:40.452Z,9
2023-03-18T19:45:24.010Z,9
2023-03-18T19:50:33.151Z,9
2023-03-18T19:52:16.596Z,9
2023-03-18T19:53:59.884Z,9
2023-03-18T19:55:43.277Z,9
2023-03-18T19:57:26.680Z,9
2023-03-18T19:59:10.078Z,10
2023-03-18T20:00:53.468Z,9
2023-03-18T20:02:36.921Z,10
2023-03-18T20:04:20.565Z,9
2023-03-18T20:06:04.072Z,9
2023-03-18T20:07:47.488Z,9
2023-03-18T20:09:30.776Z,9
2023-03-18T20:11:14.180Z,9
2023-03-18T20:12:57.610Z,8
2023-03-18T20:14:40.969Z,9
2023-03-18T20:16:24.341Z,10
2023-03-18T20:18:08.044Z,9
2023-03-18T20:19:51.460Z,9
2023-03-18T20:21:34.845Z,10
2023-03-18T20:23:18.259Z,9
2023-03-18T20:25:01.639Z,9
2023-03-18T20:26:45.054Z,9
2023-03-18T20:28:28.467Z,9
2023-03-18T20:30:11.841Z,9
2023-03-18T20:33:38.310Z,9
2023-03-18T20:35:21.797Z,8
2023-03-18T20:37:05.189Z,9
2023-03-18T20:38:48.603Z,10
2023-03-18T20:40:31.928Z,9
2023-03-18T20:42:15.281Z,10
2023-03-18T20:43:58.682Z,8
2023-03-18T20:47:25.215Z,9
2023-03-18T20:49:08.595Z,9
2023-03-18T20:50:51.961Z,9
2023-03-18T20:52:35.378Z,9
2023-03-18T20:54:18.897Z,8
2023-03-18T20:56:02.141Z,9
2023-03-18T20:57:45.568Z,9
2023-03-18T21:01:12.065Z,9
2023-03-18T21:02:55.394Z,9
2023-03-18T21:04:38.786Z,9
2023-03-18T21:06:22.196Z,9
2023-03-18T21:08:05.587Z,10
2023-03-18T21:09:48.992Z,9
2023-03-18T21:11:32.382Z,9
2023-03-18T21:14:58.910Z,9
2023-03-18T21:16:42.252Z,9
2023-03-18T21:18:25.713Z,9
2023-03-18T21:20:09.054Z,9
2023-03-18T21:21:52.474Z,9
2023-03-18T21:23:35.831Z,9
2023-03-18T21:25:19.305Z,9
2023-03-18T21:30:28.526Z,9
2023-03-18T21:32:11.926Z,9
2023-03-18T21:33:55.265Z,9
2023-03-18T21:35:38.680Z,9
2023-03-18T21:37:22.174Z,9
2023-03-18T21:39:05.482Z,9
2023-03-18T21:40:48.868Z,9
2023-03-18T21:44:15.330Z,10
2023-03-18T21:45:58.730Z,9
2023-03-18T21:47:42.124Z,9
2023-03-18T21:49:25.530Z,9
2023-03-18T21:51:08.939Z,9
2023-03-18T21:52:52.340Z,9
2023-03-18T21:54:35.724Z,10
2023-03-18T21:56:19.178Z,10
2023-03-18T21:58:02.815Z,10
2023-03-18T21:59:46.210Z,9
2023-03-18T22:01:29.619Z,10
2023-03-18T22:03:13.003Z,10
2023-03-18T22:04:56.412Z,9
2023-03-18T22:06:39.902Z,9
2023-03-18T22:08:23.401Z,9
2023-03-18T22:10:06.591Z,9
2023-03-18T22:13:33.117Z,9
2023-03-18T22:15:16.462Z,7
2023-03-18T22:16:59.852Z,7
2023-03-18T22:18:43.361Z,9
2023-03-18T22:20:26.659Z,9
2023-03-18T22:22:10.087Z,9
2023-03-18T22:23:53.452Z,9
2023-03-18T22:29:02.689Z,9
2023-03-18T22:30:46.150Z,10
2023-03-18T22:32:29.531Z,9
2023-03-18T22:34:12.876Z,10
2023-03-18T22:35:56.285Z,9
2023-03-18T22:37:39.705Z,11
2023-03-18T22:39:23.082Z,8
2023-03-18T22:41:06.463Z,9
2023-03-18T22:42:50.154Z,9
2023-03-18T22:44:33.573Z,9
2023-03-18T22:46:16.989Z,9
2023-03-18T22:48:00.377Z,8
2023-03-18T22:49:43.860Z,8
2023-03-18T22:51:27.159Z,10
2023-03-18T22:53:10.556Z,10
2023-03-18T22:54:53.958Z,9
2023-03-18T22:58:20.437Z,9
2023-03-18T23:00:03.836Z,9
2023-03-18T23:01:47.276Z,9
2023-03-18T23:03:30.701Z,8
2023-03-18T23:05:14.005Z,9
2023-03-18T23:06:57.415Z,9
2023-03-18T23:08:40.802Z,9
2023-03-18T23:10:24.212Z,9
2023-03-18T23:13:50.711Z,9
2023-03-18T23:15:34.109Z,9
2023-03-18T23:17:17.466Z,10
2023-03-18T23:19:00.862Z,9
2023-03-18T23:20:44.450Z,9
2023-03-18T23:22:27.662Z,9
2023-03-18T23:24:11.052Z,9
2023-03-18T23:25:54.599Z,10
2023-03-18T23:29:20.932Z,10
2023-03-18T23:31:04.345Z,9
2023-03-18T23:32:47.768Z,9
2023-03-18T23:34:31.139Z,10
2023-03-18T23:36:14.583Z,9
2023-03-18T23:37:57.923Z,9
2023-03-18T23:39:41.314Z,10
2023-03-18T23:41:24.711Z,10
2023-03-18T23:43:08.405Z,9
2023-03-18T23:44:51.803Z,9
2023-03-18T23:46:35.222Z,9
2023-03-18T23:48:18.600Z,9
2023-03-18T23:50:02.032Z,9
2023-03-18T23:51:45.409Z,10
2023-03-18T23:53:28.825Z,10
2023-03-18T23:58:38.068Z,9
